Leipzig, Germany

11:11 AM CEST on August 30, 2016 (GMT +0200)
Weißestraße | | Change Station

Elev 449 ft 51.32 °N, 12.42 °E | Updated 1 minute ago

Mostly Cloudy
Mostly Cloudy
62.8 °F
Feels Like 62.8 °F
N
3.1
Wind Variable Wind from NNE
Gusts 9.3 mph

Today
High -- | Low -- °F
--% Chance of Precip.
Yesterday
High -- | Low -- °F
Precip. -- in
Pressure 30.33 in
Visibility 6.2 miles
Clouds Scattered Clouds 2600 ft
Mostly Cloudy 30000 ft
Dew Point 50 °F
Humidity 62%
Rainfall 0.00 in
Snow Depth Not available.
6:20 AM 8:00 PM
Waning Crescent, 4% visible
METAR EDDP 300850Z VRB04KT 9999 SCT026 BKN300 17/09 Q1027 NOSIG
Pressure 30.33 in
Visibility 6.2 miles
Clouds Scattered Clouds 2600 ft
Mostly Cloudy 30000 ft
Dew Point 50 °F
Humidity 62%
Rainfall 0.00 in
Snow Depth Not available.
6:20 AM 8:00 PM
Waning Crescent, 4% visible
METAR EDDP 300850Z VRB04KT 9999 SCT026 BKN300 17/09 Q1027 NOSIG

10-Day Weather Forecast

×

Almanac

Astronomy

Aug. 30, 2016 Rise Set
Actual Time
Civil Twilight
Nautical Twilight
Astronomical Twilight
Moon
Length of Visible Light
Length of Day
Tomorrow will be .
, % of the Moon is Illuminated

Today's Extremes

Country Highs Country Lows

Community

WunderPhotos

Upload Photos

1,935,795 photos uploaded!

WunderBlog® & News

Nearby

Air Quality

  Air Quality AQ Index Pollutant
Not available.

Snow Depth

Station Depth Elevation

Earthquake Activity

City Distance Mag. Time & Date
Minimum magnitude displayed is 2.5.

Coastal Water Temperatures

Place Temperature

Stations

Nearby Weather Stations

Station Location Temp. Windchill Dew Point Humidity Wind Precip. Elev Updated Type